Terminal Aerodrome Forecast
Issued by NWS

Current Version | Previous Version | Text Only | Print | Product List | Glossary On
Versions: 1 2 3 4 5 6 7 8 9 10 11 12 13 14 15 16
000
FTUS44 KEPZ 170500
TAFTCS
TAF
KTCS 170527Z 1706/1806 03005KT 6SM -SHRA SCT008 BKN025
     FM171000 04004KT 5SM SHRA BKN010 OVC025
      TEMPO 1710/1714 2SM +SHRA BKN008
     FM171600 06007KT P6SM VCSH SCT015 BKN025 OVC050
     FM172000 08008KT P6SM VCSH SCT025 BKN050 OVC080
     FM180200 02010KT P6SM VCSH BKN025 OVC060=

USA.gov is the U.S. government's official web portal to all federal, state and local government web resources and services.